sensor_id;sensor_type;location;lat;lon;timestamp;temperature;humidity
27707;DHT22;36332;51.384;0.040;2022-12-11T00:04:34;-1.70;99.90
27707;DHT22;36332;51.384;0.040;2022-12-11T00:07:02;-1.80;99.90
27707;DHT22;36332;51.384;0.040;2022-12-11T00:46:30;-2.00;99.90
27707;DHT22;36332;51.384;0.040;2022-12-11T00:56:22;-4.60;99.90
27707;DHT22;36332;51.384;0.040;2022-12-11T01:01:20;-2.00;99.90
27707;DHT22;36332;51.384;0.040;2022-12-11T01:06:20;-2.10;99.90
27707;DHT22;36332;51.384;0.040;2022-12-11T01:14:04;-2.00;99.90
27707;DHT22;36332;51.384;0.040;2022-12-11T01:18:59;-2.00;99.90
27707;DHT22;36332;51.384;0.040;2022-12-11T01:21:27;-2.10;99.90
27707;DHT22;36332;51.384;0.040;2022-12-11T01:28:50;-2.10;99.90
27707;DHT22;36332;51.384;0.040;2022-12-11T01:31:19;-2.10;99.90
27707;DHT22;36332;51.384;0.040;2022-12-11T01:36:19;-2.10;99.90
27707;DHT22;36332;51.384;0.040;2022-12-11T01:38:48;-2.10;99.90
27707;DHT22;36332;51.384;0.040;2022-12-11T01:41:16;-2.10;99.90
27707;DHT22;36332;51.384;0.040;2022-12-11T01:44:01;-3.50;99.90
27707;DHT22;36332;51.384;0.040;2022-12-11T01:46:30;-2.20;99.90
27707;DHT22;36332;51.384;0.040;2022-12-11T01:48:59;-2.20;99.90
27707;DHT22;36332;51.384;0.040;2022-12-11T01:51:28;-2.20;99.90
27707;DHT22;36332;51.384;0.040;2022-12-11T01:54:00;-2.20;99.90
27707;DHT22;36332;51.384;0.040;2022-12-11T01:56:31;-2.20;99.90
27707;DHT22;36332;51.384;0.040;2022-12-11T01:59:02;-2.20;99.90
27707;DHT22;36332;51.384;0.040;2022-12-11T02:01:44;-2.20;99.90
27707;DHT22;36332;51.384;0.040;2022-12-11T02:04:17;-2.30;99.90
27707;DHT22;36332;51.384;0.040;2022-12-11T02:06:48;-2.50;99.90
27707;DHT22;36332;51.384;0.040;2022-12-11T02:09:21;-2.30;99.90
27707;DHT22;36332;51.384;0.040;2022-12-11T02:28:33;-2.50;99.90
27707;DHT22;36332;51.384;0.040;2022-12-11T02:31:21;-2.50;99.90
27707;DHT22;36332;51.384;0.040;2022-12-11T02:34:02;-2.50;99.90
27707;DHT22;36332;51.384;0.040;2022-12-11T02:36:34;-2.50;99.90
27707;DHT22;36332;51.384;0.040;2022-12-11T02:39:04;-2.50;99.90
27707;DHT22;36332;51.384;0.040;2022-12-11T02:44:01;-2.40;99.90
27707;DHT22;36332;51.384;0.040;2022-12-11T02:46:30;-2.40;99.90
27707;DHT22;36332;51.384;0.040;2022-12-11T02:49:02;-2.50;99.90
27707;DHT22;36332;51.384;0.040;2022-12-11T02:51:35;-2.40;99.90
27707;DHT22;36332;51.384;0.040;2022-12-11T02:54:06;-2.50;99.90
27707;DHT22;36332;51.384;0.040;2022-12-11T02:56:43;-2.40;99.90
27707;DHT22;36332;51.384;0.040;2022-12-11T02:59:15;-2.40;99.90
27707;DHT22;36332;51.384;0.040;2022-12-11T03:01:45;-2.40;99.90
27707;DHT22;36332;51.384;0.040;2022-12-11T03:06:46;-2.50;99.90
27707;DHT22;36332;51.384;0.040;2022-12-11T03:09:16;-2.50;99.90
27707;DHT22;36332;51.384;0.040;2022-12-11T03:17:00;-2.50;99.90
27707;DHT22;36332;51.384;0.040;2022-12-11T03:19:35;-2.50;99.90
27707;DHT22;36332;51.384;0.040;2022-12-11T03:24:59;-2.50;99.90
27707;DHT22;36332;51.384;0.040;2022-12-11T03:27:36;-2.50;99.90
27707;DHT22;36332;51.384;0.040;2022-12-11T03:30:15;-2.50;99.90
27707;DHT22;36332;51.384;0.040;2022-12-11T03:32:55;-2.60;99.90
27707;DHT22;36332;51.384;0.040;2022-12-11T03:35:40;-2.60;99.90
27707;DHT22;36332;51.384;0.040;2022-12-11T03:38:23;-2.60;99.90
27707;DHT22;36332;51.384;0.040;2022-12-11T03:40:53;-2.60;99.90
27707;DHT22;36332;51.384;0.040;2022-12-11T03:43:22;-2.60;99.90
27707;DHT22;36332;51.384;0.040;2022-12-11T03:45:52;-2.70;99.90
27707;DHT22;36332;51.384;0.040;2022-12-11T03:48:22;-2.70;99.90
27707;DHT22;36332;51.384;0.040;2022-12-11T03:50:51;-2.70;99.90
27707;DHT22;36332;51.384;0.040;2022-12-11T03:53:19;-2.70;99.90
27707;DHT22;36332;51.384;0.040;2022-12-11T03:55:49;-2.80;99.90
27707;DHT22;36332;51.384;0.040;2022-12-11T04:05:47;-2.70;99.90
27707;DHT22;36332;51.384;0.040;2022-12-11T04:08:17;-2.70;99.90
27707;DHT22;36332;51.384;0.040;2022-12-11T04:13:12;-2.80;99.90
27707;DHT22;36332;51.384;0.040;2022-12-11T04:18:09;-2.80;99.90
27707;DHT22;36332;51.384;0.040;2022-12-11T04:20:55;-2.80;99.90
27707;DHT22;36332;51.384;0.040;2022-12-11T04:26:28;-2.80;99.90
27707;DHT22;36332;51.384;0.040;2022-12-11T04:31:23;-2.90;99.90
27707;DHT22;36332;51.384;0.040;2022-12-11T04:41:15;-2.90;99.90
27707;DHT22;36332;51.384;0.040;2022-12-11T04:43:43;-2.90;99.90
27707;DHT22;36332;51.384;0.040;2022-12-11T04:46:19;-2.90;99.90
27707;DHT22;36332;51.384;0.040;2022-12-11T04:48:48;-2.50;99.90
27707;DHT22;36332;51.384;0.040;2022-12-11T04:51:23;-2.90;99.90
27707;DHT22;36332;51.384;0.040;2022-12-11T04:53:51;-3.00;99.90
27707;DHT22;36332;51.384;0.040;2022-12-11T04:56:20;-2.90;99.90
27707;DHT22;36332;51.384;0.040;2022-12-11T04:58:47;-2.90;99.90
27707;DHT22;36332;51.384;0.040;2022-12-11T05:01:18;-3.00;99.90
27707;DHT22;36332;51.384;0.040;2022-12-11T05:03:46;-2.90;99.90
27707;DHT22;36332;51.384;0.040;2022-12-11T05:08:42;-3.00;99.90
27707;DHT22;36332;51.384;0.040;2022-12-11T05:11:12;-2.90;99.90
27707;DHT22;36332;51.384;0.040;2022-12-11T05:16:09;-3.00;99.90
27707;DHT22;36332;51.384;0.040;2022-12-11T05:21:08;-2.90;99.90
27707;DHT22;36332;51.384;0.040;2022-12-11T05:26:16;-2.90;99.90
27707;DHT22;36332;51.384;0.040;2022-12-11T05:28:45;-3.00;99.90
27707;DHT22;36332;51.384;0.040;2022-12-11T05:31:18;-3.00;99.90
27707;DHT22;36332;51.384;0.040;2022-12-11T05:33:46;-2.90;99.90
27707;DHT22;36332;51.384;0.040;2022-12-11T05:36:29;-2.90;99.90
27707;DHT22;36332;51.384;0.040;2022-12-11T05:38:58;-2.90;99.90
27707;DHT22;36332;51.384;0.040;2022-12-11T05:41:29;-3.00;99.90
27707;DHT22;36332;51.384;0.040;2022-12-11T05:46:27;-3.00;99.90
27707;DHT22;36332;51.384;0.040;2022-12-11T05:48:57;-3.00;99.90
27707;DHT22;36332;51.384;0.040;2022-12-11T05:51:26;-3.00;99.90
27707;DHT22;36332;51.384;0.040;2022-12-11T05:53:55;-3.10;99.90
27707;DHT22;36332;51.384;0.040;2022-12-11T05:56:29;-0.90;99.90
27707;DHT22;36332;51.384;0.040;2022-12-11T05:58:58;-3.10;99.90
27707;DHT22;36332;51.384;0.040;2022-12-11T06:01:38;-3.10;99.90
27707;DHT22;36332;51.384;0.040;2022-12-11T06:04:09;-3.10;99.90
27707;DHT22;36332;51.384;0.040;2022-12-11T06:09:05;-3.10;99.90
27707;DHT22;36332;51.384;0.040;2022-12-11T06:14:02;-3.10;99.90
27707;DHT22;36332;51.384;0.040;2022-12-11T06:16:30;-3.10;99.90
27707;DHT22;36332;51.384;0.040;2022-12-11T06:18:58;-3.10;99.90
27707;DHT22;36332;51.384;0.040;2022-12-11T06:21:28;-3.10;99.90
27707;DHT22;36332;51.384;0.040;2022-12-11T06:23:59;-3.10;99.90
27707;DHT22;36332;51.384;0.040;2022-12-11T06:26:27;-3.00;99.90
27707;DHT22;36332;51.384;0.040;2022-12-11T06:36:21;-2.80;99.90
27707;DHT22;36332;51.384;0.040;2022-12-11T06:46:15;-2.70;99.90
27707;DHT22;36332;51.384;0.040;2022-12-11T06:48:43;-2.70;99.90
27707;DHT22;36332;51.384;0.040;2022-12-11T06:51:14;-2.70;99.90
27707;DHT22;36332;51.384;0.040;2022-12-11T06:56:13;-2.70;99.90
27707;DHT22;36332;51.384;0.040;2022-12-11T06:58:41;-2.70;99.90
27707;DHT22;36332;51.384;0.040;2022-12-11T07:01:24;-2.70;99.90
27707;DHT22;36332;51.384;0.040;2022-12-11T07:03:56;-2.80;99.90
27707;DHT22;36332;51.384;0.040;2022-12-11T07:06:25;-2.60;99.90
27707;DHT22;36332;51.384;0.040;2022-12-11T07:11:22;-2.60;99.90
27707;DHT22;36332;51.384;0.040;2022-12-11T07:18:47;-2.60;99.90
27707;DHT22;36332;51.384;0.040;2022-12-11T07:21:16;-2.60;99.90
27707;DHT22;36332;51.384;0.040;2022-12-11T07:26:16;-2.60;99.90
27707;DHT22;36332;51.384;0.040;2022-12-11T07:31:15;-2.50;99.90
27707;DHT22;36332;51.384;0.040;2022-12-11T07:33:44;-2.50;99.90
27707;DHT22;36332;51.384;0.040;2022-12-11T07:36:13;-2.40;99.90
27707;DHT22;36332;51.384;0.040;2022-12-11T07:38:40;-2.40;99.90
27707;DHT22;36332;51.384;0.040;2022-12-11T07:41:11;-2.40;99.90
27707;DHT22;36332;51.384;0.040;2022-12-11T07:43:40;-2.40;99.90
27707;DHT22;36332;51.384;0.040;2022-12-11T07:46:20;-2.40;99.90
27707;DHT22;36332;51.384;0.040;2022-12-11T07:48:49;-2.40;99.90
27707;DHT22;36332;51.384;0.040;2022-12-11T07:53:46;-2.40;99.90
27707;DHT22;36332;51.384;0.040;2022-12-11T07:56:15;-2.40;99.90
27707;DHT22;36332;51.384;0.040;2022-12-11T07:58:43;-2.40;99.90
27707;DHT22;36332;51.384;0.040;2022-12-11T08:01:14;-2.40;99.90
27707;DHT22;36332;51.384;0.040;2022-12-11T08:03:43;-2.30;99.90
27707;DHT22;36332;51.384;0.040;2022-12-11T08:08:39;-2.40;99.90
27707;DHT22;36332;51.384;0.040;2022-12-11T08:11:11;-2.40;99.90
27707;DHT22;36332;51.384;0.040;2022-12-11T08:13:39;-2.40;99.90
27707;DHT22;36332;51.384;0.040;2022-12-11T08:16:10;-2.40;99.90
27707;DHT22;36332;51.384;0.040;2022-12-11T08:18:40;-2.40;99.90
27707;DHT22;36332;51.384;0.040;2022-12-11T08:21:22;-2.30;99.90
27707;DHT22;36332;51.384;0.040;2022-12-11T08:23:51;-1.10;99.90
27707;DHT22;36332;51.384;0.040;2022-12-11T08:26:27;-2.30;99.90
27707;DHT22;36332;51.384;0.040;2022-12-11T08:28:57;-2.40;99.90
27707;DHT22;36332;51.384;0.040;2022-12-11T08:33:54;-2.20;99.90
27707;DHT22;36332;51.384;0.040;2022-12-11T08:41:24;-2.10;99.90
27707;DHT22;36332;51.384;0.040;2022-12-11T08:43:53;-2.00;99.90
27707;DHT22;36332;51.384;0.040;2022-12-11T08:46:27;-1.90;99.90
27707;DHT22;36332;51.384;0.040;2022-12-11T08:48:55;-1.90;99.90
27707;DHT22;36332;51.384;0.040;2022-12-11T08:51:25;-1.80;99.90
27707;DHT22;36332;51.384;0.040;2022-12-11T08:53:55;-1.80;99.90
27707;DHT22;36332;51.384;0.040;2022-12-11T08:58:52;-1.80;99.90
27707;DHT22;36332;51.384;0.040;2022-12-11T09:01:25;-1.80;99.90
27707;DHT22;36332;51.384;0.040;2022-12-11T09:03:55;-1.70;99.90
27707;DHT22;36332;51.384;0.040;2022-12-11T09:06:26;-1.70;99.90
27707;DHT22;36332;51.384;0.040;2022-12-11T09:08:55;-1.70;99.90
27707;DHT22;36332;51.384;0.040;2022-12-11T09:11:27;-1.70;99.90
27707;DHT22;36332;51.384;0.040;2022-12-11T09:13:56;-1.70;99.90
27707;DHT22;36332;51.384;0.040;2022-12-11T09:16:31;-1.70;99.90
27707;DHT22;36332;51.384;0.040;2022-12-11T09:21:28;-1.60;99.90
27707;DHT22;36332;51.384;0.040;2022-12-11T09:23:58;-1.50;99.90
27707;DHT22;36332;51.384;0.040;2022-12-11T09:26:27;-1.40;99.90
27707;DHT22;36332;51.384;0.040;2022-12-11T09:28:56;-1.40;99.90
27707;DHT22;36332;51.384;0.040;2022-12-11T09:31:27;-1.30;99.90
27707;DHT22;36332;51.384;0.040;2022-12-11T09:33:58;-1.30;99.90
27707;DHT22;36332;51.384;0.040;2022-12-11T09:36:27;-1.30;99.90
27707;DHT22;36332;51.384;0.040;2022-12-11T09:38:59;-1.20;99.90
27707;DHT22;36332;51.384;0.040;2022-12-11T09:41:36;-1.20;99.90
27707;DHT22;36332;51.384;0.040;2022-12-11T09:44:26;-1.10;99.90
27707;DHT22;36332;51.384;0.040;2022-12-11T09:46:57;-1.10;99.90
27707;DHT22;36332;51.384;0.040;2022-12-11T09:49:38;-1.00;99.90
27707;DHT22;36332;51.384;0.040;2022-12-11T09:52:37;-0.90;99.90
27707;DHT22;36332;51.384;0.040;2022-12-11T09:55:38;-0.90;99.90
27707;DHT22;36332;51.384;0.040;2022-12-11T09:58:16;-0.80;99.90
27707;DHT22;36332;51.384;0.040;2022-12-11T10:01:12;-0.70;99.90
27707;DHT22;36332;51.384;0.040;2022-12-11T10:06:41;-0.70;99.90
27707;DHT22;36332;51.384;0.040;2022-12-11T10:09:38;-0.60;99.90
27707;DHT22;36332;51.384;0.040;2022-12-11T10:17:27;-0.50;99.90
27707;DHT22;36332;51.384;0.040;2022-12-11T10:19:57;-0.40;99.90
27707;DHT22;36332;51.384;0.040;2022-12-11T10:22:29;-0.40;99.90
27707;DHT22;36332;51.384;0.040;2022-12-11T10:25:09;-0.40;99.90
27707;DHT22;36332;51.384;0.040;2022-12-11T10:30:16;-0.30;99.90
27707;DHT22;36332;51.384;0.040;2022-12-11T10:35:55;-0.30;99.90
27707;DHT22;36332;51.384;0.040;2022-12-11T10:38:30;-0.40;99.90
27707;DHT22;36332;51.384;0.040;2022-12-11T10:41:10;-0.50;99.90
27707;DHT22;36332;51.384;0.040;2022-12-11T10:43:44;-0.50;99.90
27707;DHT22;36332;51.384;0.040;2022-12-11T10:46:20;-0.50;99.90
27707;DHT22;36332;51.384;0.040;2022-12-11T10:49:00;-0.50;99.90
27707;DHT22;36332;51.384;0.040;2022-12-11T10:56:52;-0.70;99.90
27707;DHT22;36332;51.384;0.040;2022-12-11T10:59:24;-0.70;99.90
27707;DHT22;36332;51.384;0.040;2022-12-11T11:04:35;-0.70;99.90
27707;DHT22;36332;51.384;0.040;2022-12-11T11:07:24;-0.70;99.90
27707;DHT22;36332;51.384;0.040;2022-12-11T11:10:24;-0.70;99.90
27707;DHT22;36332;51.384;0.040;2022-12-11T11:13:00;-0.60;99.90
27707;DHT22;36332;51.384;0.040;2022-12-11T11:15:28;-0.50;99.90
27707;DHT22;36332;51.384;0.040;2022-12-11T11:18:09;-0.40;99.90
27707;DHT22;36332;51.384;0.040;2022-12-11T11:20:44;-0.30;99.90
27707;DHT22;36332;51.384;0.040;2022-12-11T11:23:14;-0.30;99.90
27707;DHT22;36332;51.384;0.040;2022-12-11T11:26:09;-0.20;99.90
27707;DHT22;36332;51.384;0.040;2022-12-11T11:28:46;-0.10;99.90
27707;DHT22;36332;51.384;0.040;2022-12-11T11:31:16;0.00;99.90
27707;DHT22;36332;51.384;0.040;2022-12-11T11:36:28;0.00;99.90
27707;DHT22;36332;51.384;0.040;2022-12-11T11:44:42;0.10;99.90
27707;DHT22;36332;51.384;0.040;2022-12-11T11:47:21;0.10;99.90
27707;DHT22;36332;51.384;0.040;2022-12-11T11:52:55;0.00;99.90
27707;DHT22;36332;51.384;0.040;2022-12-11T11:58:23;0.00;99.90
27707;DHT22;36332;51.384;0.040;2022-12-11T12:03:23;0.10;99.90
27707;DHT22;36332;51.384;0.040;2022-12-11T12:08:44;0.10;99.90
27707;DHT22;36332;51.384;0.040;2022-12-11T12:16:41;0.20;99.90
27707;DHT22;36332;51.384;0.040;2022-12-11T12:25:02;0.30;99.90
27707;DHT22;36332;51.384;0.040;2022-12-11T12:31:04;0.40;99.90
27707;DHT22;36332;51.384;0.040;2022-12-11T12:36:20;0.50;99.90
27707;DHT22;36332;51.384;0.040;2022-12-11T12:38:53;0.60;99.90
27707;DHT22;36332;51.384;0.040;2022-12-11T12:49:42;0.70;99.90
27707;DHT22;36332;51.384;0.040;2022-12-11T12:52:18;0.60;99.90
27707;DHT22;36332;51.384;0.040;2022-12-11T12:54:51;0.60;99.90
27707;DHT22;36332;51.384;0.040;2022-12-11T12:57:43;0.60;99.90
27707;DHT22;36332;51.384;0.040;2022-12-11T13:00:12;0.50;99.90
27707;DHT22;36332;51.384;0.040;2022-12-11T13:02:48;0.50;99.90
27707;DHT22;36332;51.384;0.040;2022-12-11T13:05:20;0.50;99.90
27707;DHT22;36332;51.384;0.040;2022-12-11T13:07:51;0.60;99.90
27707;DHT22;36332;51.384;0.040;2022-12-11T13:10:28;0.60;99.90
27707;DHT22;36332;51.384;0.040;2022-12-11T13:12:57;0.70;99.90
27707;DHT22;36332;51.384;0.040;2022-12-11T13:20:23;0.50;99.90
27707;DHT22;36332;51.384;0.040;2022-12-11T13:23:08;0.60;99.90
27707;DHT22;36332;51.384;0.040;2022-12-11T13:25:48;0.60;99.90
27707;DHT22;36332;51.384;0.040;2022-12-11T13:28:25;0.60;99.90
27707;DHT22;36332;51.384;0.040;2022-12-11T13:33:49;0.60;99.90
27707;DHT22;36332;51.384;0.040;2022-12-11T13:38:57;0.60;99.90
27707;DHT22;36332;51.384;0.040;2022-12-11T13:41:27;0.60;99.90
27707;DHT22;36332;51.384;0.040;2022-12-11T13:43:56;0.70;99.90
27707;DHT22;36332;51.384;0.040;2022-12-11T13:46:30;0.70;99.90
27707;DHT22;36332;51.384;0.040;2022-12-11T13:49:02;0.70;99.90
27707;DHT22;36332;51.384;0.040;2022-12-11T13:51:32;0.70;99.90
27707;DHT22;36332;51.384;0.040;2022-12-11T13:54:12;0.70;99.90
27707;DHT22;36332;51.384;0.040;2022-12-11T13:56:59;0.70;99.90
27707;DHT22;36332;51.384;0.040;2022-12-11T13:59:36;0.70;99.90
27707;DHT22;36332;51.384;0.040;2022-12-11T14:07:19;0.60;99.90
27707;DHT22;36332;51.384;0.040;2022-12-11T14:12:18;0.60;99.90
27707;DHT22;36332;51.384;0.040;2022-12-11T14:14:54;0.60;99.90
27707;DHT22;36332;51.384;0.040;2022-12-11T14:17:29;0.60;99.90
27707;DHT22;36332;51.384;0.040;2022-12-11T14:19:59;0.50;99.90
27707;DHT22;36332;51.384;0.040;2022-12-11T14:22:28;0.70;99.90
27707;DHT22;36332;51.384;0.040;2022-12-11T14:25:01;0.60;99.90
27707;DHT22;36332;51.384;0.040;2022-12-11T14:30:09;0.70;99.90
27707;DHT22;36332;51.384;0.040;2022-12-11T14:32:41;0.70;99.90
27707;DHT22;36332;51.384;0.040;2022-12-11T14:35:25;0.70;99.90
27707;DHT22;36332;51.384;0.040;2022-12-11T14:37:54;0.70;99.90
27707;DHT22;36332;51.384;0.040;2022-12-11T14:40:26;0.60;99.90
27707;DHT22;36332;51.384;0.040;2022-12-11T14:42:57;0.50;99.90
27707;DHT22;36332;51.384;0.040;2022-12-11T14:45:33;0.60;99.90
27707;DHT22;36332;51.384;0.040;2022-12-11T14:48:08;0.60;99.90
27707;DHT22;36332;51.384;0.040;2022-12-11T14:50:46;0.60;99.90
27707;DHT22;36332;51.384;0.040;2022-12-11T14:53:28;0.60;99.90
27707;DHT22;36332;51.384;0.040;2022-12-11T14:56:02;0.60;99.90
27707;DHT22;36332;51.384;0.040;2022-12-11T14:58:32;0.60;99.90
27707;DHT22;36332;51.384;0.040;2022-12-11T15:01:06;0.70;99.90
27707;DHT22;36332;51.384;0.040;2022-12-11T15:03:37;0.70;99.90
27707;DHT22;36332;51.384;0.040;2022-12-11T15:06:25;0.70;99.90
27707;DHT22;36332;51.384;0.040;2022-12-11T15:08:54;0.70;99.90
27707;DHT22;36332;51.384;0.040;2022-12-11T15:11:23;0.70;99.90
27707;DHT22;36332;51.384;0.040;2022-12-11T15:13:55;0.70;99.90
27707;DHT22;36332;51.384;0.040;2022-12-11T15:16:26;0.70;99.90
27707;DHT22;36332;51.384;0.040;2022-12-11T15:21:35;0.80;99.90
27707;DHT22;36332;51.384;0.040;2022-12-11T15:24:04;0.80;99.90
27707;DHT22;36332;51.384;0.040;2022-12-11T15:26:39;0.80;99.90
27707;DHT22;36332;51.384;0.040;2022-12-11T15:29:39;0.80;99.90
27707;DHT22;36332;51.384;0.040;2022-12-11T15:34:49;0.90;99.90
27707;DHT22;36332;51.384;0.040;2022-12-11T15:42:17;0.80;99.90
27707;DHT22;36332;51.384;0.040;2022-12-11T15:47:23;0.90;99.90
27707;DHT22;36332;51.384;0.040;2022-12-11T15:49:55;0.90;99.90
27707;DHT22;36332;51.384;0.040;2022-12-11T15:52:24;0.90;99.90
27707;DHT22;36332;51.384;0.040;2022-12-11T15:57:21;0.90;99.90
27707;DHT22;36332;51.384;0.040;2022-12-11T15:59:51;0.90;99.90
27707;DHT22;36332;51.384;0.040;2022-12-11T16:02:19;0.90;99.90
27707;DHT22;36332;51.384;0.040;2022-12-11T16:07:17;0.90;99.90
27707;DHT22;36332;51.384;0.040;2022-12-11T16:14:43;0.90;99.90
27707;DHT22;36332;51.384;0.040;2022-12-11T16:17:13;0.90;99.90
27707;DHT22;36332;51.384;0.040;2022-12-11T16:19:42;0.90;99.90
27707;DHT22;36332;51.384;0.040;2022-12-11T16:22:11;0.90;99.90
27707;DHT22;36332;51.384;0.040;2022-12-11T16:24:40;1.00;99.90
27707;DHT22;36332;51.384;0.040;2022-12-11T16:27:08;1.00;99.90
27707;DHT22;36332;51.384;0.040;2022-12-11T16:29:38;1.00;99.90
27707;DHT22;36332;51.384;0.040;2022-12-11T16:32:07;1.00;99.90
27707;DHT22;36332;51.384;0.040;2022-12-11T16:34:36;0.90;99.90
27707;DHT22;36332;51.384;0.040;2022-12-11T16:37:05;1.10;99.90
27707;DHT22;36332;51.384;0.040;2022-12-11T16:39:35;1.10;99.90
27707;DHT22;36332;51.384;0.040;2022-12-11T16:42:04;1.10;99.90
27707;DHT22;36332;51.384;0.040;2022-12-11T16:49:29;1.10;99.90
27707;DHT22;36332;51.384;0.040;2022-12-11T16:56:53;1.10;99.90
27707;DHT22;36332;51.384;0.040;2022-12-11T17:19:09;1.10;99.90
27707;DHT22;36332;51.384;0.040;2022-12-11T17:24:06;1.20;99.90
27707;DHT22;36332;51.384;0.040;2022-12-11T17:29:02;1.20;99.90
27707;DHT22;36332;51.384;0.040;2022-12-11T17:33:58;1.20;99.90
27707;DHT22;36332;51.384;0.040;2022-12-11T17:36:29;1.20;99.90
27707;DHT22;36332;51.384;0.040;2022-12-11T17:48:49;1.20;99.90
27707;DHT22;36332;51.384;0.040;2022-12-11T17:51:18;1.30;99.90
27707;DHT22;36332;51.384;0.040;2022-12-11T17:53:53;1.30;99.90
27707;DHT22;36332;51.384;0.040;2022-12-11T18:03:46;1.30;99.90
27707;DHT22;36332;51.384;0.040;2022-12-11T18:08:43;1.40;99.90
27707;DHT22;36332;51.384;0.040;2022-12-11T18:11:15;1.30;99.90
27707;DHT22;36332;51.384;0.040;2022-12-11T18:13:43;1.40;99.90
27707;DHT22;36332;51.384;0.040;2022-12-11T18:16:17;1.30;99.90
27707;DHT22;36332;51.384;0.040;2022-12-11T18:18:46;1.40;99.90
27707;DHT22;36332;51.384;0.040;2022-12-11T18:21:16;1.40;99.90
27707;DHT22;36332;51.384;0.040;2022-12-11T18:23:44;1.40;99.90
27707;DHT22;36332;51.384;0.040;2022-12-11T18:28:45;1.30;99.90
27707;DHT22;36332;51.384;0.040;2022-12-11T18:31:13;1.40;99.90
27707;DHT22;36332;51.384;0.040;2022-12-11T18:33:43;1.40;99.90
27707;DHT22;36332;51.384;0.040;2022-12-11T18:36:12;1.40;99.90
27707;DHT22;36332;51.384;0.040;2022-12-11T18:38:41;1.40;99.90
27707;DHT22;36332;51.384;0.040;2022-12-11T18:41:10;1.40;99.90
27707;DHT22;36332;51.384;0.040;2022-12-11T18:43:39;1.40;99.90
27707;DHT22;36332;51.384;0.040;2022-12-11T18:46:09;1.40;99.90
27707;DHT22;36332;51.384;0.040;2022-12-11T18:51:08;1.40;99.90
27707;DHT22;36332;51.384;0.040;2022-12-11T18:53:36;1.50;99.90
27707;DHT22;36332;51.384;0.040;2022-12-11T18:56:08;1.50;99.90
27707;DHT22;36332;51.384;0.040;2022-12-11T18:58:36;1.50;99.90
27707;DHT22;36332;51.384;0.040;2022-12-11T19:01:09;-0.40;99.90
27707;DHT22;36332;51.384;0.040;2022-12-11T19:06:10;1.50;99.90
27707;DHT22;36332;51.384;0.040;2022-12-11T19:13:34;1.50;99.90
27707;DHT22;36332;51.384;0.040;2022-12-11T19:16:03;1.60;99.90
27707;DHT22;36332;51.384;0.040;2022-12-11T19:18:30;1.60;99.90
27707;DHT22;36332;51.384;0.040;2022-12-11T19:23:35;1.60;99.90
27707;DHT22;36332;51.384;0.040;2022-12-11T19:26:04;1.60;99.90
27707;DHT22;36332;51.384;0.040;2022-12-11T19:31:00;1.60;99.90
27707;DHT22;36332;51.384;0.040;2022-12-11T19:36:04;1.60;99.90
27707;DHT22;36332;51.384;0.040;2022-12-11T19:38:33;1.60;99.90
27707;DHT22;36332;51.384;0.040;2022-12-11T19:41:06;1.60;99.90
27707;DHT22;36332;51.384;0.040;2022-12-11T19:43:34;1.50;99.90
27707;DHT22;36332;51.384;0.040;2022-12-11T19:46:04;1.50;99.90
27707;DHT22;36332;51.384;0.040;2022-12-11T19:51:15;1.50;99.90
27707;DHT22;36332;51.384;0.040;2022-12-11T19:53:44;1.50;99.90
27707;DHT22;36332;51.384;0.040;2022-12-11T19:56:13;1.50;99.90
27707;DHT22;36332;51.384;0.040;2022-12-11T19:58:41;1.50;99.90
27707;DHT22;36332;51.384;0.040;2022-12-11T20:01:26;1.50;99.90
27707;DHT22;36332;51.384;0.040;2022-12-11T20:04:02;1.50;99.90
27707;DHT22;36332;51.384;0.040;2022-12-11T20:06:31;1.50;99.90
27707;DHT22;36332;51.384;0.040;2022-12-11T20:09:00;1.50;99.90
27707;DHT22;36332;51.384;0.040;2022-12-11T20:11:28;1.50;99.90
27707;DHT22;36332;51.384;0.040;2022-12-11T20:16:25;1.50;99.90
27707;DHT22;36332;51.384;0.040;2022-12-11T20:19:13;1.40;99.90
27707;DHT22;36332;51.384;0.040;2022-12-11T20:21:40;1.50;99.90
27707;DHT22;36332;51.384;0.040;2022-12-11T20:24:09;1.40;99.90
27707;DHT22;36332;51.384;0.040;2022-12-11T20:26:37;1.40;99.90
27707;DHT22;36332;51.384;0.040;2022-12-11T20:29:05;1.40;99.90
27707;DHT22;36332;51.384;0.040;2022-12-11T20:31:35;1.40;99.90
27707;DHT22;36332;51.384;0.040;2022-12-11T20:34:04;1.40;99.90
27707;DHT22;36332;51.384;0.040;2022-12-11T20:39:00;1.40;99.90
27707;DHT22;36332;51.384;0.040;2022-12-11T20:41:28;1.40;99.90
27707;DHT22;36332;51.384;0.040;2022-12-11T20:46:26;1.40;99.90
27707;DHT22;36332;51.384;0.040;2022-12-11T20:48:55;1.30;99.90
27707;DHT22;36332;51.384;0.040;2022-12-11T20:53:54;1.10;99.90
27707;DHT22;36332;51.384;0.040;2022-12-11T20:56:30;1.20;99.90
27707;DHT22;36332;51.384;0.040;2022-12-11T20:58:58;1.20;99.90
27707;DHT22;36332;51.384;0.040;2022-12-11T21:01:28;1.10;99.90
27707;DHT22;36332;51.384;0.040;2022-12-11T21:03:57;1.10;99.90
27707;DHT22;36332;51.384;0.040;2022-12-11T21:11:22;0.90;99.90
27707;DHT22;36332;51.384;0.040;2022-12-11T21:13:51;0.90;99.90
27707;DHT22;36332;51.384;0.040;2022-12-11T21:16:19;0.90;99.90
27707;DHT22;36332;51.384;0.040;2022-12-11T21:21:15;0.80;99.90
27707;DHT22;36332;51.384;0.040;2022-12-11T21:23:43;0.80;99.90
27707;DHT22;36332;51.384;0.040;2022-12-11T21:26:11;0.80;99.90
27707;DHT22;36332;51.384;0.040;2022-12-11T21:31:11;0.80;99.90
27707;DHT22;36332;51.384;0.040;2022-12-11T21:36:08;0.70;99.90
27707;DHT22;36332;51.384;0.040;2022-12-11T21:41:16;0.60;99.90
27707;DHT22;36332;51.384;0.040;2022-12-11T21:43:45;0.70;99.90
27707;DHT22;36332;51.384;0.040;2022-12-11T21:51:25;0.60;99.90
27707;DHT22;36332;51.384;0.040;2022-12-11T21:54:03;0.70;99.90
27707;DHT22;36332;51.384;0.040;2022-12-11T21:56:32;0.70;99.90
27707;DHT22;36332;51.384;0.040;2022-12-11T22:01:30;0.70;99.90
27707;DHT22;36332;51.384;0.040;2022-12-11T22:04:00;0.60;99.90
27707;DHT22;36332;51.384;0.040;2022-12-11T22:06:28;0.70;99.90
27707;DHT22;36332;51.384;0.040;2022-12-11T22:11:26;0.70;99.90
27707;DHT22;36332;51.384;0.040;2022-12-11T22:13:54;0.70;99.90
27707;DHT22;36332;51.384;0.040;2022-12-11T22:21:20;0.70;99.90
27707;DHT22;36332;51.384;0.040;2022-12-11T22:26:19;0.80;99.90
27707;DHT22;36332;51.384;0.040;2022-12-11T22:28:48;0.80;99.90
27707;DHT22;36332;51.384;0.040;2022-12-11T22:31:18;0.80;99.90
27707;DHT22;36332;51.384;0.040;2022-12-11T22:33:51;0.80;99.90
27707;DHT22;36332;51.384;0.040;2022-12-11T22:36:25;0.80;99.90
27707;DHT22;36332;51.384;0.040;2022-12-11T22:38:54;0.90;99.90
27707;DHT22;36332;51.384;0.040;2022-12-11T22:41:25;0.80;99.90
27707;DHT22;36332;51.384;0.040;2022-12-11T22:43:53;0.80;99.90
27707;DHT22;36332;51.384;0.040;2022-12-11T22:46:24;0.90;99.90
27707;DHT22;36332;51.384;0.040;2022-12-11T22:51:20;0.80;99.90
27707;DHT22;36332;51.384;0.040;2022-12-11T22:53:49;0.90;99.90
27707;DHT22;36332;51.384;0.040;2022-12-11T23:01:16;0.80;99.90
27707;DHT22;36332;51.384;0.040;2022-12-11T23:06:15;0.90;99.90
27707;DHT22;36332;51.384;0.040;2022-12-11T23:11:23;1.00;99.90
27707;DHT22;36332;51.384;0.040;2022-12-11T23:16:20;1.00;99.90
27707;DHT22;36332;51.384;0.040;2022-12-11T23:18:50;1.10;99.90
27707;DHT22;36332;51.384;0.040;2022-12-11T23:26:15;1.10;99.90